sensor_id;sensor_type;location;lat;lon;timestamp;pressure;altitude;pressure_sealevel;temperature;humidity
33845;BME280;20145;43.118;25.694;2023-07-29T00:01:11;99194.91;;;18.75;66.56
33845;BME280;20145;43.118;25.694;2023-07-29T00:03:37;99185.09;;;18.61;66.93
33845;BME280;20145;43.118;25.694;2023-07-29T00:06:03;99190.09;;;18.48;66.54
33845;BME280;20145;43.118;25.694;2023-07-29T00:08:29;99189.72;;;18.37;67.45
33845;BME280;20145;43.118;25.694;2023-07-29T00:10:54;99191.41;;;18.21;66.78
33845;BME280;20145;43.118;25.694;2023-07-29T00:13:20;99192.53;;;18.15;67.08
33845;BME280;20145;43.118;25.694;2023-07-29T00:15:45;99190.66;;;18.17;67.75
33845;BME280;20145;43.118;25.694;2023-07-29T00:18:11;99180.66;;;18.08;67.87
33845;BME280;20145;43.118;25.694;2023-07-29T00:20:37;99175.94;;;17.97;68.32
33845;BME280;20145;43.118;25.694;2023-07-29T00:23:02;99178.19;;;17.86;68.38
33845;BME280;20145;43.118;25.694;2023-07-29T00:25:28;99172.53;;;17.76;68.88
33845;BME280;20145;43.118;25.694;2023-07-29T00:27:56;99173.75;;;17.68;69.55
33845;BME280;20145;43.118;25.694;2023-07-29T00:30:22;99181.53;;;17.69;69.95
33845;BME280;20145;43.118;25.694;2023-07-29T00:32:47;99164.19;;;17.68;69.66
33845;BME280;20145;43.118;25.694;2023-07-29T00:35:13;99164.91;;;17.72;70.67
33845;BME280;20145;43.118;25.694;2023-07-29T00:37:39;99167.94;;;17.63;70.71
33845;BME280;20145;43.118;25.694;2023-07-29T00:40:14;99165.72;;;17.53;70.98
33845;BME280;20145;43.118;25.694;2023-07-29T00:42:40;99167.06;;;17.43;69.97
33845;BME280;20145;43.118;25.694;2023-07-29T00:45:08;99175.00;;;17.40;70.26
33845;BME280;20145;43.118;25.694;2023-07-29T00:47:34;99157.53;;;17.42;70.49
33845;BME280;20145;43.118;25.694;2023-07-29T00:50:00;99164.56;;;17.40;70.79
33845;BME280;20145;43.118;25.694;2023-07-29T00:52:25;99159.41;;;17.38;71.25
33845;BME280;20145;43.118;25.694;2023-07-29T00:54:51;99154.25;;;17.37;71.53
33845;BME280;20145;43.118;25.694;2023-07-29T00:57:18;99152.72;;;17.33;71.76
33845;BME280;20145;43.118;25.694;2023-07-29T00:59:44;99159.63;;;17.34;71.82
33845;BME280;20145;43.118;25.694;2023-07-29T01:02:10;99157.66;;;17.39;71.36
33845;BME280;20145;43.118;25.694;2023-07-29T01:04:35;99161.91;;;17.42;70.86
33845;BME280;20145;43.118;25.694;2023-07-29T01:07:17;99163.84;;;17.36;70.92
33845;BME280;20145;43.118;25.694;2023-07-29T01:13:13;99176.19;;;17.33;71.46
33845;BME280;20145;43.118;25.694;2023-07-29T01:15:54;99178.19;;;17.26;72.30
33845;BME280;20145;43.118;25.694;2023-07-29T01:18:27;99171.47;;;17.21;72.20
33845;BME280;20145;43.118;25.694;2023-07-29T01:20:55;99174.22;;;17.17;72.97
33845;BME280;20145;43.118;25.694;2023-07-29T01:23:25;99172.59;;;17.15;72.49
33845;BME280;20145;43.118;25.694;2023-07-29T01:25:50;99170.06;;;17.13;72.43
33845;BME280;20145;43.118;25.694;2023-07-29T01:28:16;99178.78;;;17.12;72.88
33845;BME280;20145;43.118;25.694;2023-07-29T01:30:42;99182.19;;;17.14;73.59
33845;BME280;20145;43.118;25.694;2023-07-29T01:38:21;99182.09;;;17.36;71.09
33845;BME280;20145;43.118;25.694;2023-07-29T01:40:50;99189.28;;;17.31;71.93
33845;BME280;20145;43.118;25.694;2023-07-29T01:43:17;99194.91;;;17.22;71.17
33845;BME280;20145;43.118;25.694;2023-07-29T01:45:44;99199.47;;;17.17;71.95
33845;BME280;20145;43.118;25.694;2023-07-29T01:48:10;99193.31;;;17.18;72.14
33845;BME280;20145;43.118;25.694;2023-07-29T01:50:35;99199.41;;;17.19;71.88
33845;BME280;20145;43.118;25.694;2023-07-29T01:53:01;99200.28;;;17.17;72.36
33845;BME280;20145;43.118;25.694;2023-07-29T01:55:27;99196.84;;;17.17;72.81
33845;BME280;20145;43.118;25.694;2023-07-29T01:57:52;99205.59;;;17.16;72.30
33845;BME280;20145;43.118;25.694;2023-07-29T02:00:18;99200.84;;;17.05;72.87
33845;BME280;20145;43.118;25.694;2023-07-29T02:02:44;99197.38;;;17.05;72.88
33845;BME280;20145;43.118;25.694;2023-07-29T02:05:10;99207.19;;;16.98;72.68
33845;BME280;20145;43.118;25.694;2023-07-29T02:07:35;99199.78;;;16.89;72.81
33845;BME280;20145;43.118;25.694;2023-07-29T02:10:01;99211.41;;;16.80;73.65
33845;BME280;20145;43.118;25.694;2023-07-29T02:12:27;99201.97;;;16.76;73.51
33845;BME280;20145;43.118;25.694;2023-07-29T02:14:52;99199.81;;;16.65;73.67
33845;BME280;20145;43.118;25.694;2023-07-29T02:17:18;99197.28;;;16.64;73.83
33845;BME280;20145;43.118;25.694;2023-07-29T02:19:43;99206.13;;;16.60;73.87
33845;BME280;20145;43.118;25.694;2023-07-29T02:22:12;99209.59;;;16.60;74.23
33845;BME280;20145;43.118;25.694;2023-07-29T02:24:38;99207.75;;;16.62;73.09
33845;BME280;20145;43.118;25.694;2023-07-29T02:27:04;99200.72;;;16.64;74.52
33845;BME280;20145;43.118;25.694;2023-07-29T02:29:29;99204.25;;;16.63;74.79
33845;BME280;20145;43.118;25.694;2023-07-29T02:31:55;99194.84;;;16.59;74.14
33845;BME280;20145;43.118;25.694;2023-07-29T02:34:21;99206.25;;;16.57;75.31
33845;BME280;20145;43.118;25.694;2023-07-29T02:36:47;99208.00;;;16.56;74.54
33845;BME280;20145;43.118;25.694;2023-07-29T02:39:12;99205.53;;;16.53;74.82
33845;BME280;20145;43.118;25.694;2023-07-29T02:41:38;99202.44;;;16.43;75.61
33845;BME280;20145;43.118;25.694;2023-07-29T02:44:04;99217.03;;;16.47;74.26
33845;BME280;20145;43.118;25.694;2023-07-29T02:46:30;99211.09;;;16.44;74.91
33845;BME280;20145;43.118;25.694;2023-07-29T02:48:55;99218.25;;;16.39;74.15
33845;BME280;20145;43.118;25.694;2023-07-29T02:51:21;99212.47;;;16.31;74.92
33845;BME280;20145;43.118;25.694;2023-07-29T02:53:47;99214.38;;;16.27;74.98
33845;BME280;20145;43.118;25.694;2023-07-29T02:56:12;99216.34;;;16.20;74.74
33845;BME280;20145;43.118;25.694;2023-07-29T02:58:38;99220.75;;;16.18;75.60
33845;BME280;20145;43.118;25.694;2023-07-29T03:01:05;99225.09;;;16.18;75.63
33845;BME280;20145;43.118;25.694;2023-07-29T03:03:32;99217.38;;;16.16;75.31
33845;BME280;20145;43.118;25.694;2023-07-29T03:06:05;99221.53;;;16.20;75.45
33845;BME280;20145;43.118;25.694;2023-07-29T03:08:31;99227.78;;;16.16;75.85
33845;BME280;20145;43.118;25.694;2023-07-29T03:10:58;99221.78;;;16.14;75.97
33845;BME280;20145;43.118;25.694;2023-07-29T03:13:24;99227.09;;;16.11;75.50
33845;BME280;20145;43.118;25.694;2023-07-29T03:15:49;99220.97;;;16.12;76.62
33845;BME280;20145;43.118;25.694;2023-07-29T03:18:15;99220.03;;;16.15;77.31
33845;BME280;20145;43.118;25.694;2023-07-29T03:20:41;99224.44;;;16.13;75.93
33845;BME280;20145;43.118;25.694;2023-07-29T03:23:07;99215.66;;;16.15;76.13
33845;BME280;20145;43.118;25.694;2023-07-29T03:25:32;99222.38;;;16.21;75.63
33845;BME280;20145;43.118;25.694;2023-07-29T03:27:58;99219.56;;;16.27;76.25
33845;BME280;20145;43.118;25.694;2023-07-29T03:30:24;99228.69;;;16.37;76.14
33845;BME280;20145;43.118;25.694;2023-07-29T03:32:51;99227.56;;;16.44;74.97
33845;BME280;20145;43.118;25.694;2023-07-29T03:35:16;99223.03;;;16.49;75.17
33845;BME280;20145;43.118;25.694;2023-07-29T03:37:42;99220.19;;;16.56;75.47
33845;BME280;20145;43.118;25.694;2023-07-29T03:40:08;99230.31;;;16.63;75.61
33845;BME280;20145;43.118;25.694;2023-07-29T03:42:37;99232.59;;;16.71;74.65
33845;BME280;20145;43.118;25.694;2023-07-29T03:45:03;99228.88;;;16.78;74.17
33845;BME280;20145;43.118;25.694;2023-07-29T03:47:29;99227.59;;;16.88;74.95
33845;BME280;20145;43.118;25.694;2023-07-29T03:49:54;99223.69;;;16.99;75.32
33845;BME280;20145;43.118;25.694;2023-07-29T03:52:20;99234.19;;;17.17;74.32
33845;BME280;20145;43.118;25.694;2023-07-29T03:54:46;99242.19;;;17.35;74.79
33845;BME280;20145;43.118;25.694;2023-07-29T03:57:11;99246.44;;;17.56;74.55
33845;BME280;20145;43.118;25.694;2023-07-29T03:59:37;99243.72;;;17.80;74.08
33845;BME280;20145;43.118;25.694;2023-07-29T04:02:03;99246.50;;;18.15;72.44
33845;BME280;20145;43.118;25.694;2023-07-29T04:04:29;99237.88;;;18.50;71.46
33845;BME280;20145;43.118;25.694;2023-07-29T04:06:54;99242.91;;;18.91;69.92
33845;BME280;20145;43.118;25.694;2023-07-29T04:09:20;99240.94;;;19.49;67.67
33845;BME280;20145;43.118;25.694;2023-07-29T04:11:45;99235.88;;;20.12;65.84
33845;BME280;20145;43.118;25.694;2023-07-29T04:14:11;99237.56;;;20.77;63.55
33845;BME280;20145;43.118;25.694;2023-07-29T04:16:36;99235.97;;;21.34;62.16
33845;BME280;20145;43.118;25.694;2023-07-29T04:19:02;99239.41;;;21.94;60.14
33845;BME280;20145;43.118;25.694;2023-07-29T04:21:27;99238.06;;;22.44;58.21
33845;BME280;20145;43.118;25.694;2023-07-29T04:23:53;99240.03;;;22.94;57.80
33845;BME280;20145;43.118;25.694;2023-07-29T04:26:19;99244.81;;;23.42;55.96
33845;BME280;20145;43.118;25.694;2023-07-29T04:28:44;99251.19;;;23.78;55.51
33845;BME280;20145;43.118;25.694;2023-07-29T04:31:10;99244.44;;;23.87;54.19
33845;BME280;20145;43.118;25.694;2023-07-29T04:33:35;99253.81;;;23.78;54.13
33845;BME280;20145;43.118;25.694;2023-07-29T04:36:01;99254.88;;;23.75;54.78
33845;BME280;20145;43.118;25.694;2023-07-29T04:38:31;99251.50;;;23.73;54.55
33845;BME280;20145;43.118;25.694;2023-07-29T04:41:00;99252.09;;;23.64;56.00
33845;BME280;20145;43.118;25.694;2023-07-29T04:43:31;99262.63;;;23.64;56.70
33845;BME280;20145;43.118;25.694;2023-07-29T04:45:57;99270.09;;;23.57;57.32
33845;BME280;20145;43.118;25.694;2023-07-29T04:48:23;99265.66;;;23.58;56.72
33845;BME280;20145;43.118;25.694;2023-07-29T04:50:48;99273.00;;;23.27;57.31
33845;BME280;20145;43.118;25.694;2023-07-29T04:53:14;99260.94;;;22.83;57.58
33845;BME280;20145;43.118;25.694;2023-07-29T04:55:41;99273.25;;;22.56;59.47
33845;BME280;20145;43.118;25.694;2023-07-29T04:58:08;99269.22;;;22.64;59.24
33845;BME280;20145;43.118;25.694;2023-07-29T05:00:33;99263.22;;;22.75;58.58
33845;BME280;20145;43.118;25.694;2023-07-29T05:02:59;99266.03;;;22.86;58.64
33845;BME280;20145;43.118;25.694;2023-07-29T05:05:24;99271.63;;;22.94;57.44
33845;BME280;20145;43.118;25.694;2023-07-29T05:07:50;99270.13;;;23.05;58.28
33845;BME280;20145;43.118;25.694;2023-07-29T05:10:15;99257.38;;;22.99;57.76
33845;BME280;20145;43.118;25.694;2023-07-29T05:12:41;99265.59;;;23.07;58.18
33845;BME280;20145;43.118;25.694;2023-07-29T05:15:07;99270.16;;;23.18;57.25
33845;BME280;20145;43.118;25.694;2023-07-29T05:17:33;99285.66;;;23.35;56.41
33845;BME280;20145;43.118;25.694;2023-07-29T05:19:58;99290.00;;;23.49;55.55
33845;BME280;20145;43.118;25.694;2023-07-29T05:22:24;99285.38;;;23.52;55.14
33845;BME280;20145;43.118;25.694;2023-07-29T05:24:50;99292.00;;;23.58;54.78
33845;BME280;20145;43.118;25.694;2023-07-29T05:27:15;99287.72;;;23.70;54.37
33845;BME280;20145;43.118;25.694;2023-07-29T05:29:41;99294.88;;;23.68;54.64
33845;BME280;20145;43.118;25.694;2023-07-29T05:32:07;99297.22;;;23.85;54.75
33845;BME280;20145;43.118;25.694;2023-07-29T05:34:33;99302.06;;;23.91;54.21
33845;BME280;20145;43.118;25.694;2023-07-29T05:36:58;99301.75;;;23.96;54.45
33845;BME280;20145;43.118;25.694;2023-07-29T05:39:24;99306.38;;;24.05;53.58
33845;BME280;20145;43.118;25.694;2023-07-29T05:41:49;99302.28;;;24.01;53.39
33845;BME280;20145;43.118;25.694;2023-07-29T05:44:15;99311.25;;;24.11;53.09
33845;BME280;20145;43.118;25.694;2023-07-29T05:46:40;99311.75;;;24.29;53.45
33845;BME280;20145;43.118;25.694;2023-07-29T05:49:06;99314.72;;;24.50;53.94
33845;BME280;20145;43.118;25.694;2023-07-29T05:51:31;99316.59;;;24.35;52.56
33845;BME280;20145;43.118;25.694;2023-07-29T05:53:57;99318.63;;;24.19;52.62
33845;BME280;20145;43.118;25.694;2023-07-29T05:56:22;99320.84;;;24.25;53.89
33845;BME280;20145;43.118;25.694;2023-07-29T05:58:48;99312.38;;;24.33;53.48
33845;BME280;20145;43.118;25.694;2023-07-29T06:01:14;99307.13;;;24.45;52.42
33845;BME280;20145;43.118;25.694;2023-07-29T06:03:39;99299.78;;;24.62;52.47
33845;BME280;20145;43.118;25.694;2023-07-29T06:06:05;99298.28;;;24.70;52.70
33845;BME280;20145;43.118;25.694;2023-07-29T06:08:30;99292.09;;;24.83;51.19
33845;BME280;20145;43.118;25.694;2023-07-29T06:10:59;99297.25;;;24.97;50.09
33845;BME280;20145;43.118;25.694;2023-07-29T06:13:25;99296.31;;;25.09;50.12
33845;BME280;20145;43.118;25.694;2023-07-29T06:15:51;99290.06;;;25.10;49.04
33845;BME280;20145;43.118;25.694;2023-07-29T06:18:16;99294.63;;;25.32;49.45
33845;BME280;20145;43.118;25.694;2023-07-29T06:20:42;99293.81;;;25.43;48.18
33845;BME280;20145;43.118;25.694;2023-07-29T06:23:08;99292.91;;;25.55;47.41
33845;BME280;20145;43.118;25.694;2023-07-29T06:25:34;99290.28;;;25.67;48.40
33845;BME280;20145;43.118;25.694;2023-07-29T06:27:59;99285.63;;;25.81;47.91
33845;BME280;20145;43.118;25.694;2023-07-29T06:30:25;99267.03;;;25.83;47.85
33845;BME280;20145;43.118;25.694;2023-07-29T06:32:50;99293.72;;;26.02;46.74
33845;BME280;20145;43.118;25.694;2023-07-29T06:35:16;99283.59;;;25.96;46.95
33845;BME280;20145;43.118;25.694;2023-07-29T06:37:42;99290.34;;;26.00;46.91
33845;BME280;20145;43.118;25.694;2023-07-29T06:40:08;99295.41;;;26.03;48.08
33845;BME280;20145;43.118;25.694;2023-07-29T06:42:33;99289.38;;;26.13;47.34
33845;BME280;20145;43.118;25.694;2023-07-29T06:44:59;99291.91;;;26.14;47.49
33845;BME280;20145;43.118;25.694;2023-07-29T06:47:24;99289.28;;;26.14;47.20
33845;BME280;20145;43.118;25.694;2023-07-29T06:49:50;99290.22;;;26.13;48.15
33845;BME280;20145;43.118;25.694;2023-07-29T06:52:16;99293.97;;;26.33;47.68
33845;BME280;20145;43.118;25.694;2023-07-29T06:54:41;99286.97;;;26.55;47.79
33845;BME280;20145;43.118;25.694;2023-07-29T06:57:07;99289.97;;;26.61;46.67
33845;BME280;20145;43.118;25.694;2023-07-29T06:59:32;99278.06;;;26.67;46.95
33845;BME280;20145;43.118;25.694;2023-07-29T07:01:58;99289.44;;;26.79;47.15
33845;BME280;20145;43.118;25.694;2023-07-29T07:04:25;99286.91;;;26.88;46.38
33845;BME280;20145;43.118;25.694;2023-07-29T07:06:50;99288.78;;;26.98;46.52
33845;BME280;20145;43.118;25.694;2023-07-29T07:09:16;99289.56;;;27.09;46.58
33845;BME280;20145;43.118;25.694;2023-07-29T07:11:41;99294.50;;;27.14;47.07
33845;BME280;20145;43.118;25.694;2023-07-29T07:14:07;99290.81;;;27.17;47.01
33845;BME280;20145;43.118;25.694;2023-07-29T07:16:32;99285.25;;;27.08;46.25
33845;BME280;20145;43.118;25.694;2023-07-29T07:18:58;99280.97;;;26.96;48.45
33845;BME280;20145;43.118;25.694;2023-07-29T07:21:24;99276.28;;;27.00;47.83
33845;BME280;20145;43.118;25.694;2023-07-29T07:23:50;99273.09;;;27.06;47.86
33845;BME280;20145;43.118;25.694;2023-07-29T07:26:15;99276.22;;;27.11;49.04
33845;BME280;20145;43.118;25.694;2023-07-29T07:28:41;99277.56;;;27.17;47.20
33845;BME280;20145;43.118;25.694;2023-07-29T07:31:06;99284.16;;;27.22;47.87
33845;BME280;20145;43.118;25.694;2023-07-29T07:33:32;99282.34;;;27.23;47.17
33845;BME280;20145;43.118;25.694;2023-07-29T07:35:58;99281.63;;;27.21;47.41
33845;BME280;20145;43.118;25.694;2023-07-29T07:38:23;99281.34;;;27.24;47.64
33845;BME280;20145;43.118;25.694;2023-07-29T07:40:53;99279.81;;;27.42;47.30
33845;BME280;20145;43.118;25.694;2023-07-29T07:43:20;99281.19;;;27.57;47.44
33845;BME280;20145;43.118;25.694;2023-07-29T07:45:46;99284.06;;;27.75;47.59
33845;BME280;20145;43.118;25.694;2023-07-29T07:48:11;99282.34;;;27.86;45.08
33845;BME280;20145;43.118;25.694;2023-07-29T07:50:38;99282.38;;;27.95;45.22
33845;BME280;20145;43.118;25.694;2023-07-29T07:53:04;99275.16;;;28.07;44.95
33845;BME280;20145;43.118;25.694;2023-07-29T07:55:30;99273.72;;;27.93;43.73
33845;BME280;20145;43.118;25.694;2023-07-29T07:57:55;99279.00;;;27.84;44.37
33845;BME280;20145;43.118;25.694;2023-07-29T08:00:21;99273.53;;;27.85;43.81
33845;BME280;20145;43.118;25.694;2023-07-29T08:02:46;99264.25;;;27.91;43.60
33845;BME280;20145;43.118;25.694;2023-07-29T08:05:12;99273.22;;;28.09;43.45
33845;BME280;20145;43.118;25.694;2023-07-29T08:07:38;99275.78;;;28.11;43.00
33845;BME280;20145;43.118;25.694;2023-07-29T08:10:03;99273.63;;;28.05;43.92
33845;BME280;20145;43.118;25.694;2023-07-29T08:12:29;99268.31;;;28.05;43.70
33845;BME280;20145;43.118;25.694;2023-07-29T08:14:54;99261.88;;;27.97;43.05
33845;BME280;20145;43.118;25.694;2023-07-29T08:17:20;99257.16;;;28.01;41.24
33845;BME280;20145;43.118;25.694;2023-07-29T08:19:45;99250.63;;;28.05;42.55
33845;BME280;20145;43.118;25.694;2023-07-29T08:22:14;99257.22;;;28.20;41.50
33845;BME280;20145;43.118;25.694;2023-07-29T08:24:45;99259.22;;;28.38;40.58
33845;BME280;20145;43.118;25.694;2023-07-29T08:27:11;99256.34;;;28.51;39.10
33845;BME280;20145;43.118;25.694;2023-07-29T08:29:36;99255.28;;;28.63;39.17
33845;BME280;20145;43.118;25.694;2023-07-29T08:32:02;99258.47;;;28.76;40.13
33845;BME280;20145;43.118;25.694;2023-07-29T08:34:27;99251.66;;;28.83;39.12
33845;BME280;20145;43.118;25.694;2023-07-29T08:36:54;99250.94;;;28.91;40.51
33845;BME280;20145;43.118;25.694;2023-07-29T08:39:19;99248.97;;;28.93;38.88
33845;BME280;20145;43.118;25.694;2023-07-29T08:44:26;99252.06;;;28.69;39.62
33845;BME280;20145;43.118;25.694;2023-07-29T08:46:56;99240.00;;;28.65;38.03
33845;BME280;20145;43.118;25.694;2023-07-29T08:49:23;99240.72;;;28.57;39.00
33845;BME280;20145;43.118;25.694;2023-07-29T08:51:49;99237.94;;;28.68;38.89
33845;BME280;20145;43.118;25.694;2023-07-29T08:54:16;99238.22;;;28.75;37.97
33845;BME280;20145;43.118;25.694;2023-07-29T08:56:43;99242.69;;;28.75;38.33
33845;BME280;20145;43.118;25.694;2023-07-29T08:59:09;99240.75;;;28.86;38.23
33845;BME280;20145;43.118;25.694;2023-07-29T09:01:38;99229.28;;;28.86;37.98
33845;BME280;20145;43.118;25.694;2023-07-29T09:04:03;99234.72;;;28.94;37.46
33845;BME280;20145;43.118;25.694;2023-07-29T09:06:31;99228.03;;;29.00;37.02
33845;BME280;20145;43.118;25.694;2023-07-29T09:08:58;99234.16;;;29.00;38.22
33845;BME280;20145;43.118;25.694;2023-07-29T09:11:27;99228.84;;;29.00;37.40
33845;BME280;20145;43.118;25.694;2023-07-29T09:13:52;99229.84;;;29.19;37.09
33845;BME280;20145;43.118;25.694;2023-07-29T09:16:20;99230.53;;;29.21;37.29
33845;BME280;20145;43.118;25.694;2023-07-29T09:18:50;99227.84;;;29.01;37.03
33845;BME280;20145;43.118;25.694;2023-07-29T09:21:20;99230.81;;;28.98;37.13
33845;BME280;20145;43.118;25.694;2023-07-29T09:23:48;99236.44;;;29.05;35.94
33845;BME280;20145;43.118;25.694;2023-07-29T09:26:25;99221.34;;;29.05;36.53
33845;BME280;20145;43.118;25.694;2023-07-29T09:28:55;99231.81;;;29.17;36.53
33845;BME280;20145;43.118;25.694;2023-07-29T09:31:22;99223.84;;;29.17;36.85
33845;BME280;20145;43.118;25.694;2023-07-29T09:33:48;99220.34;;;29.16;36.28
33845;BME280;20145;43.118;25.694;2023-07-29T09:36:14;99227.16;;;29.28;36.08
33845;BME280;20145;43.118;25.694;2023-07-29T09:38:40;99222.88;;;29.08;35.61
33845;BME280;20145;43.118;25.694;2023-07-29T09:41:05;99210.25;;;29.00;36.51
33845;BME280;20145;43.118;25.694;2023-07-29T09:43:33;99224.09;;;29.23;36.98
33845;BME280;20145;43.118;25.694;2023-07-29T09:46:03;99226.03;;;29.31;36.41
33845;BME280;20145;43.118;25.694;2023-07-29T09:48:34;99212.75;;;29.31;36.19
33845;BME280;20145;43.118;25.694;2023-07-29T09:51:03;99216.25;;;29.31;35.97
33845;BME280;20145;43.118;25.694;2023-07-29T09:53:42;99214.88;;;29.27;35.58
33845;BME280;20145;43.118;25.694;2023-07-29T09:56:08;99213.22;;;29.17;36.12
33845;BME280;20145;43.118;25.694;2023-07-29T09:58:34;99210.84;;;29.04;36.73
33845;BME280;20145;43.118;25.694;2023-07-29T10:01:01;99211.09;;;29.01;37.12
33845;BME280;20145;43.118;25.694;2023-07-29T10:03:27;99216.16;;;29.13;36.56
33845;BME280;20145;43.118;25.694;2023-07-29T10:05:55;99217.53;;;29.18;37.54
33845;BME280;20145;43.118;25.694;2023-07-29T10:08:22;99211.13;;;29.10;36.93
33845;BME280;20145;43.118;25.694;2023-07-29T10:10:50;99216.41;;;29.30;36.92
33845;BME280;20145;43.118;25.694;2023-07-29T10:13:16;99204.44;;;29.53;36.94
33845;BME280;20145;43.118;25.694;2023-07-29T10:15:42;99205.53;;;29.70;36.45
33845;BME280;20145;43.118;25.694;2023-07-29T10:18:09;99202.56;;;29.73;35.84
33845;BME280;20145;43.118;25.694;2023-07-29T10:20:35;99198.28;;;29.63;35.87
33845;BME280;20145;43.118;25.694;2023-07-29T10:23:01;99193.66;;;29.65;36.47
33845;BME280;20145;43.118;25.694;2023-07-29T10:25:40;99197.25;;;29.73;35.55
33845;BME280;20145;43.118;25.694;2023-07-29T10:28:07;99195.84;;;29.79;36.47
33845;BME280;20145;43.118;25.694;2023-07-29T10:30:33;99189.06;;;29.94;36.64
33845;BME280;20145;43.118;25.694;2023-07-29T10:33:02;99186.88;;;30.08;35.93
33845;BME280;20145;43.118;25.694;2023-07-29T10:35:29;99184.31;;;30.16;35.90
33845;BME280;20145;43.118;25.694;2023-07-29T10:37:55;99184.13;;;30.27;35.78
33845;BME280;20145;43.118;25.694;2023-07-29T10:40:21;99177.75;;;30.38;36.57
33845;BME280;20145;43.118;25.694;2023-07-29T10:43:06;99179.81;;;30.44;35.85
33845;BME280;20145;43.118;25.694;2023-07-29T10:45:52;99177.84;;;30.46;34.87
33845;BME280;20145;43.118;25.694;2023-07-29T10:56:30;99170.91;;;30.35;35.95
33845;BME280;20145;43.118;25.694;2023-07-29T10:58:58;99164.66;;;30.27;35.42
33845;BME280;20145;43.118;25.694;2023-07-29T11:01:30;99163.59;;;30.37;37.69
33845;BME280;20145;43.118;25.694;2023-07-29T11:15:44;99165.28;;;30.38;34.43
33845;BME280;20145;43.118;25.694;2023-07-29T11:18:03;99164.53;;;30.46;33.86
33845;BME280;20145;43.118;25.694;2023-07-29T11:20:30;99159.88;;;30.48;35.09
33845;BME280;20145;43.118;25.694;2023-07-29T11:22:58;99157.06;;;30.50;36.75
33845;BME280;20145;43.118;25.694;2023-07-29T11:25:26;99156.28;;;30.39;33.94
33845;BME280;20145;43.118;25.694;2023-07-29T11:27:53;99141.84;;;30.42;33.31
33845;BME280;20145;43.118;25.694;2023-07-29T11:30:19;99150.75;;;30.51;33.65
33845;BME280;20145;43.118;25.694;2023-07-29T11:32:46;99148.31;;;30.57;33.65
33845;BME280;20145;43.118;25.694;2023-07-29T11:35:14;99138.19;;;30.61;33.64
33845;BME280;20145;43.118;25.694;2023-07-29T11:37:43;99136.44;;;30.70;33.98
33845;BME280;20145;43.118;25.694;2023-07-29T11:40:09;99126.66;;;30.78;34.26
33845;BME280;20145;43.118;25.694;2023-07-29T11:42:38;99122.94;;;30.89;35.37
33845;BME280;20145;43.118;25.694;2023-07-29T11:45:05;99125.53;;;30.99;33.32
33845;BME280;20145;43.118;25.694;2023-07-29T11:47:32;99131.06;;;31.05;34.40
33845;BME280;20145;43.118;25.694;2023-07-29T11:50:03;99130.38;;;31.03;32.45
33845;BME280;20145;43.118;25.694;2023-07-29T11:52:31;99122.69;;;31.00;33.04
33845;BME280;20145;43.118;25.694;2023-07-29T11:54:58;99129.78;;;31.09;32.78
33845;BME280;20145;43.118;25.694;2023-07-29T11:57:25;99136.91;;;31.09;31.97
33845;BME280;20145;43.118;25.694;2023-07-29T11:59:52;99129.78;;;31.18;31.78
33845;BME280;20145;43.118;25.694;2023-07-29T12:02:19;99124.63;;;31.16;30.29
33845;BME280;20145;43.118;25.694;2023-07-29T12:04:47;99120.91;;;31.09;31.05
33845;BME280;20145;43.118;25.694;2023-07-29T12:07:14;99125.63;;;31.15;32.22
33845;BME280;20145;43.118;25.694;2023-07-29T12:09:41;99115.53;;;31.27;31.74
33845;BME280;20145;43.118;25.694;2023-07-29T12:12:07;99117.06;;;31.29;31.35
33845;BME280;20145;43.118;25.694;2023-07-29T12:14:34;99117.38;;;31.26;30.21
33845;BME280;20145;43.118;25.694;2023-07-29T12:17:01;99116.13;;;31.13;30.39
33845;BME280;20145;43.118;25.694;2023-07-29T12:19:37;99114.47;;;31.20;30.63
33845;BME280;20145;43.118;25.694;2023-07-29T12:22:05;99116.69;;;31.24;30.11
33845;BME280;20145;43.118;25.694;2023-07-29T12:24:31;99115.84;;;31.24;29.67
33845;BME280;20145;43.118;25.694;2023-07-29T12:26:58;99118.25;;;31.35;30.53
33845;BME280;20145;43.118;25.694;2023-07-29T12:29:23;99117.31;;;31.18;30.44
33845;BME280;20145;43.118;25.694;2023-07-29T12:32:00;99114.13;;;31.15;30.28
33845;BME280;20145;43.118;25.694;2023-07-29T12:34:27;99111.50;;;31.23;31.22
33845;BME280;20145;43.118;25.694;2023-07-29T12:36:54;99108.56;;;31.34;31.15
33845;BME280;20145;43.118;25.694;2023-07-29T12:39:29;99102.13;;;31.45;30.68
33845;BME280;20145;43.118;25.694;2023-07-29T12:41:56;99103.88;;;31.54;30.85
33845;BME280;20145;43.118;25.694;2023-07-29T12:44:29;99109.38;;;31.61;30.54
33845;BME280;20145;43.118;25.694;2023-07-29T12:46:55;99108.56;;;31.60;29.82
33845;BME280;20145;43.118;25.694;2023-07-29T12:49:20;99105.72;;;31.62;29.32
33845;BME280;20145;43.118;25.694;2023-07-29T12:51:46;99106.69;;;31.52;28.84
33845;BME280;20145;43.118;25.694;2023-07-29T12:54:11;99101.03;;;31.55;29.79
33845;BME280;20145;43.118;25.694;2023-07-29T12:56:37;99100.88;;;31.57;30.09
33845;BME280;20145;43.118;25.694;2023-07-29T12:59:03;99095.72;;;31.64;29.74
33845;BME280;20145;43.118;25.694;2023-07-29T13:01:29;99095.91;;;31.62;30.88
33845;BME280;20145;43.118;25.694;2023-07-29T13:03:55;99099.44;;;31.71;32.76
33845;BME280;20145;43.118;25.694;2023-07-29T13:06:22;99095.88;;;31.54;30.28
33845;BME280;20145;43.118;25.694;2023-07-29T13:08:48;99087.31;;;31.50;30.35
33845;BME280;20145;43.118;25.694;2023-07-29T13:11:17;99092.88;;;31.57;31.89
33845;BME280;20145;43.118;25.694;2023-07-29T13:13:43;99101.34;;;31.52;30.53
33845;BME280;20145;43.118;25.694;2023-07-29T13:16:11;99092.66;;;31.50;33.14
33845;BME280;20145;43.118;25.694;2023-07-29T13:18:36;99101.84;;;31.56;32.53